Bonair, Iowa
Current Conditions -  °F | °C
As of 12:35 PM on Wednesday 26 Nov 2014 (Local Time) from KFKA Reporting Station
Haze Haze  
Wind Chill: 17°   Ceiling: 2200
Heat Index: 25°   Visibility: 4mi
Dew Point: 20°   Wind: 7mph
Humidity: 82%   Direction: 20°NNE
Pressure: 30.1"   Gusts: NA
Location:  43.4648°N, 92.2573°W
Report Text: KFKA 261835Z AUTO 02006KT 4SM BR BKN022 OVC027 M04/M07 A3010 RMK AO2 T10411067
Loading
Personal Weather Stations






























Interactive Weather Map New forecast layout! Learn more

10-Day Weather Forecast

Advertisements
Track Severe Weather on mobile